SpazioLink.com il tuo mini portale

Terremoti in Italia, posizione geografica

Spaziolink il MiniPortale

Home Sfondi Screenmates SuperEnalotto Posizione navi Terremoti Calendario feste Barzellette Frasi utili Giochi Meteo Gifs Software Ricerca
Lista dei terremoti in Italia in tempo reale dopo l'elaborazione dei valori rilevati dai sensori dislocati nelle zone interessate, comprendenti gli eventi sismici di elevata magnitudo sull'intero globo, per visualizzare la posizione dell'epicentro su Google Maps cliccare sul nome del luogo evidenziato in blu.
DATA ORA MAG ≥ 2 ZONA REGIONE LAT LONG PROF km
27/02/2021 09:29:36 ML 2.3 5 km a ovest di Gubbio (PG) Umbria 43.38 12.52 6.2
27/02/2021 03:47:09 ML 2.1 3 km a est di Morcone (BN) Campania 41.34 14.70 10.8
27/02/2021 03:40:18 ML 2.5 3 km a sud-est di Morcone (BN) Campania 41.33 14.69 9.5
27/02/2021 02:01:16 ML 2.4 4 km a est di Morcone (BN) Campania 41.34 14.71 10.4
27/02/2021 01:37:48 ML 2.1 2 km a est di Morcone (BN) Campania 41.34 14.69 10.6
26/02/2021 21:45:47 ML 2.3 2 km a ovest di Gualdo Tadino (PG) Umbria 43.23 12.77 10.5
26/02/2021 11:36:26 ML 2.5 6 km nord-est Gangi (PA) Sicilia 37.83 14.26 6.9
26/02/2021 10:29:18 ML 3.1 Adriatico Centrale (MARE) Mare 42.81 15.96 11.1
26/02/2021 08:51:33 ML 2.1 4 km a ovest di Bolsena (VT) Lazio 42.66 11.95 5.1
26/02/2021 07:30:07 ML 2.2 3 km a est di Gangi (PA) Sicilia 37.81 14.24 8.3
26/02/2021 07:02:26 ML 2.7 5 km a sud-est di Reggio di Calabria (RC) Calabria 38.08 15.70 10.7
25/02/2021 21:34:11 ML 2.7 7 km a sud-est di Pietralunga (PG) Umbria 43.40 12.50 7.8
25/02/2021 10:56:04 ML 2.1 Costa Calabra sud-occidentale (Catanzaro, Vibo Valentia, Reggio di Calabria) Mare 38.69 15.69 72.1
25/02/2021 08:42:07 ML 2.4 Costa Siciliana nord-orientale (Messina) Mare 38.40 15.49 127.9
25/02/2021 08:12:08 ML 2.0 3 km a sud-est di Terelle (FR) Lazio 41.54 13.80 10.3
25/02/2021 05:18:23 ML 3.4 Tirreno Meridionale (MARE) Mare 38.46 15.39 151.8
24/02/2021 23:07:16 ML 4.0 Bosnia and Herz. (Land) Mondo 42.83 17.99 10.0
24/02/2021 17:14:40 ML 2.5 Tirreno Meridionale (MARE) Mare 39.37 15.45 299.6
24/02/2021 15:59:29 ML 2.0 6 km a ovest di Accumoli (RI) Lazio 42.70 13.18 11.7
24/02/2021 10:58:26 ML 4.4 Croatia (Land) Mondo 45.35 16.39 6.5
23/02/2021 20:23:10 ML 2.0 1 km a est di Poggio Imperiale (FG) Puglia 41.82 15.38 19.2
22/02/2021 14:30:06 ML 2.3 3 km a nord-ovest di Ala (TN) Trentino Alto Adige 45.78 10.99 12.6
22/02/2021 13:40:59 ML 2.3 4 km a nord-ovest di Ala (TN) Trentino Alto Adige 45.79 10.99 11.1
22/02/2021 13:04:06 ML 3.5 3 km a nord-ovest di Ala (TN) Trentino Alto Adige 45.78 10.98 11.8
22/02/2021 12:07:12 ML 2.1 3 km a nord di Castelluccio Superiore (PZ) Basilicata 40.04 15.97 10.1
22/02/2021 05:37:54 ML 2.2 2 km a sud-est di Lesina (FG) Puglia 41.85 15.37 18.8
21/02/2021 22:19:51 ML 2.0 4 km a sud-est di Gualdo Cattaneo (PG) Umbria 42.89 12.59 9.2
21/02/2021 04:34:10 ML 2.2 6 km a nord di Bagno di Romagna (FC) Emilia Romagna 43.91 11.99 10.3
20/02/2021 22:59:10 ML 2.1 Costa Siciliana nord-orientale (Messina) Mare 38.21 15.04 10.1
20/02/2021 21:23:39 ML 2.5 Tirreno Meridionale (MARE) Mare 38.60 15.47 143.1
20/02/2021 15:55:55 ML 3.1 5 km a est di Borgo San Lorenzo (FI) Toscana 43.98 11.44 7.6
20/02/2021 06:13:02 ML 2.6 Tirreno Meridionale (MARE) Mare 38.88 14.07 21.8
20/02/2021 04:00:02 ML 2.0 3 km a sud-est di Pietralunga (PG) Umbria 43.42 12.45 8.5
20/02/2021 01:23:59 ML 2.2 Costa Siciliana nord-orientale (Messina) Mare 38.34 15.28 145.1
Locations of visitors to this page (counting)
- subnet mask - partners - ipcheck - favicon - speedtest - canale youtube - programmone